Time;durP1;ratioP1;P1;durP2;ratioP2;P2;SDS_P1;SDS_P2;PMS_P1;PMS_P2;Temp;Humidity;BMP_temperature;BMP_pressure;BME280_temperature;BME280_humidity;BME280_pressure;Samples;Min_cycle;Max_cycle;Signal;HPM_P1;HPM_P2
2022/06/12 00:00:04;;;;;;;15.00;4.57;;;14.30;83.50;;;;;;5015741;28;20553;-89
2022/06/12 00:02:30;;;;;;;17.83;4.87;;;14.30;83.20;;;;;;5014282;28;20205;-89
2022/06/12 00:04:55;;;;;;;13.40;3.60;;;14.20;83.30;;;;;;5031159;28;20200;-89
2022/06/12 00:07:21;;;;;;;13.50;4.03;;;14.20;83.00;;;;;;5015704;28;20216;-88
2022/06/12 00:09:46;;;;;;;15.77;4.47;;;14.10;83.00;;;;;;5015438;28;20165;-89
2022/06/12 00:12:12;;;;;;;14.83;4.93;;;14.10;83.70;;;;;;5030106;28;20166;-89
2022/06/12 00:14:38;;;;;;;26.27;5.23;;;14.00;83.90;;;;;;5014185;28;20242;-89
2022/06/12 00:17:03;;;;;;;17.17;5.23;;;13.90;84.20;;;;;;5014198;28;20375;-89
2022/06/12 00:19:30;;;;;;;10.53;4.30;;;13.90;84.40;;;;;;5047956;23;20232;-83
2022/06/12 00:21:57;;;;;;;10.27;3.83;;;13.80;84.40;;;;;;5045040;28;20195;-84
2022/06/12 00:24:23;;;;;;;11.23;3.60;;;13.80;84.30;;;;;;5045419;28;20169;-84
2022/06/12 00:26:52;;;;;;;17.10;3.90;;;13.90;83.90;;;;;;5045625;28;20213;-84
2022/06/12 00:29:33;;;;;;;20.57;4.87;;;13.90;83.40;;;;;;5045775;28;20224;-84
2022/06/12 00:32:05;;;;;;;15.80;4.43;;;13.80;83.10;;;;;;5044957;28;20173;-84
2022/06/12 00:34:35;;;;;;;14.63;4.37;;;13.80;83.80;;;;;;5044329;28;20171;-84
2022/06/12 00:37:00;;;;;;;20.50;4.80;;;13.70;84.20;;;;;;5042229;28;20243;-83
2022/06/12 00:39:27;;;;;;;12.90;4.37;;;13.60;85.20;;;;;;5039688;28;20203;-83
2022/06/12 00:41:55;;;;;;;19.20;4.33;;;13.50;85.30;;;;;;5043409;28;20200;-82
2022/06/12 00:44:34;;;;;;;15.83;4.93;;;13.50;85.50;;;;;;5043829;28;20176;-85
2022/06/12 00:47:02;;;;;;;15.43;4.80;;;13.50;85.80;;;;;;5045488;28;20195;-84
2022/06/12 00:49:36;;;;;;;11.07;4.30;;;13.60;85.30;;;;;;5046884;28;20555;-83
2022/06/12 00:52:08;;;;;;;12.27;3.93;;;13.70;84.80;;;;;;5043729;28;20631;-83
2022/06/12 00:54:34;;;;;;;11.37;3.53;;;13.60;84.40;;;;;;5045239;28;20169;-83
2022/06/12 00:57:03;;;;;;;14.23;4.90;;;13.60;84.00;;;;;;5041460;28;20173;-85
2022/06/12 00:59:45;;;;;;;7.57;3.50;;;13.60;83.80;;;;;;5042124;28;20189;-85
2022/06/12 01:02:19;;;;;;;12.80;3.37;;;13.50;83.50;;;;;;5040866;28;20196;-85
2022/06/12 01:07:36;;;;;;;12.70;3.50;;;13.50;83.00;;;;;;5043609;28;20171;-86
2022/06/12 01:10:07;;;;;;;10.70;3.30;;;13.30;83.00;;;;;;5041643;28;20189;-86
2022/06/12 01:12:48;;;;;;;12.33;3.70;;;13.30;83.10;;;;;;5042792;28;20165;-86
2022/06/12 01:15:19;;;;;;;8.23;2.90;;;13.20;83.20;;;;;;5041136;28;20153;-86
2022/06/12 01:17:46;;;;;;;13.30;3.50;;;13.10;83.10;;;;;;5039334;28;20681;-86
2022/06/12 01:20:17;;;;;;;10.17;3.73;;;13.00;83.20;;;;;;5040327;28;20212;-86
2022/06/12 01:23:23;;;;;;;7.60;3.37;;;13.00;83.20;;;;;;5041923;28;20204;-86
2022/06/12 01:26:23;;;;;;;14.00;3.27;;;13.00;83.20;;;;;;4994162;28;20222;-86
2022/06/12 01:28:53;;;;;;;8.63;2.63;;;12.80;82.70;;;;;;5041020;28;20622;-86
2022/06/12 01:31:24;;;;;;;8.90;3.20;;;12.80;82.60;;;;;;5042764;28;20179;-86
2022/06/12 01:34:27;;;;;;;8.80;2.73;;;12.70;82.70;;;;;;5042401;28;20177;-86
2022/06/12 01:37:17;;;;;;;10.77;3.30;;;12.70;82.90;;;;;;5042143;28;20276;-86
2022/06/12 01:40:04;;;;;;;5.87;2.43;;;12.60;82.70;;;;;;5038644;28;20577;-86
2022/06/12 01:42:35;;;;;;;6.93;3.23;;;12.60;82.50;;;;;;5038791;28;20288;-86
2022/06/12 01:45:48;;;;;;;7.20;2.97;;;12.60;82.30;;;;;;5039045;28;20200;-86
2022/06/12 01:48:32;;;;;;;6.97;3.43;;;12.40;81.90;;;;;;4979748;28;20171;-86
2022/06/12 01:51:19;;;;;;;8.87;3.07;;;12.40;82.00;;;;;;5041864;28;20206;-86
2022/06/12 01:53:59;;;;;;;9.27;3.13;;;12.40;82.20;;;;;;5040570;28;20227;-86
2022/06/12 01:56:36;;;;;;;7.43;2.70;;;12.30;82.10;;;;;;5039106;28;20647;-86
2022/06/12 01:59:11;;;;;;;7.13;3.33;;;12.30;82.00;;;;;;5039011;28;20200;-86
2022/06/12 02:01:40;;;;;;;8.37;3.27;;;12.30;81.90;;;;;;5039405;28;20172;-85
2022/06/12 02:04:44;;;;;;;10.40;3.40;;;12.30;81.80;;;;;;5040459;28;20176;-86
2022/06/12 02:07:24;;;;;;;10.00;3.53;;;12.30;81.60;;;;;;5039788;28;20190;-87
2022/06/12 02:09:52;;;;;;;10.80;2.90;;;12.30;81.60;;;;;;5040969;28;20288;-86
2022/06/12 02:15:11;;;;;;;12.20;3.37;;;12.20;81.60;;;;;;5042403;28;20168;-86
2022/06/12 02:17:52;;;;;;;11.50;3.53;;;12.20;81.70;;;;;;5041425;28;20169;-85
2022/06/12 02:20:21;;;;;;;8.33;3.63;;;12.10;81.70;;;;;;5041547;28;20243;-85
2022/06/12 02:22:49;;;;;;;13.00;4.43;;;12.10;81.80;;;;;;5042295;28;20187;-85
2022/06/12 02:25:23;;;;;;;15.87;4.77;;;12.10;82.20;;;;;;5040087;28;20205;-86
2022/06/12 02:27:58;;;;;;;15.50;4.53;;;12.20;84.60;;;;;;5040322;28;20164;-86
2022/06/12 02:30:29;;;;;;;17.17;4.80;;;12.20;86.50;;;;;;5042899;28;20195;-86
2022/06/12 02:33:03;;;;;;;7.57;4.30;;;12.10;86.60;;;;;;5041136;28;20533;-86
2022/06/12 02:35:49;;;;;;;14.80;4.60;;;12.10;86.30;;;;;;5043872;28;20581;-86
2022/06/12 02:38:23;;;;;;;12.53;4.30;;;12.10;86.00;;;;;;5045900;28;20548;-85
2022/06/12 02:40:53;;;;;;;14.97;4.17;;;12.10;85.70;;;;;;5047090;28;20296;-85
2022/06/12 02:43:25;;;;;;;16.70;4.53;;;12.00;85.60;;;;;;5044858;28;20186;-85
2022/06/12 02:45:57;;;;;;;16.07;4.37;;;12.00;85.60;;;;;;5047335;28;20666;-85
2022/06/12 02:48:23;;;;;;;11.07;4.70;;;12.00;86.30;;;;;;5045218;28;20639;-85
2022/06/12 02:51:10;;;;;;;20.60;4.03;;;11.90;86.80;;;;;;5044251;28;20212;-85
2022/06/12 02:53:58;;;;;;;12.13;4.23;;;11.80;87.20;;;;;;5045298;28;20161;-85
2022/06/12 02:56:48;;;;;;;14.47;4.00;;;11.70;87.60;;;;;;5044952;28;20165;-85
2022/06/12 02:59:38;;;;;;;10.50;4.07;;;11.70;87.80;;;;;;5046410;28;20196;-86
2022/06/12 03:02:33;;;;;;;11.13;4.43;;;11.80;87.70;;;;;;5043735;28;20176;-86
2022/06/12 03:05:01;;;;;;;11.87;4.33;;;11.90;87.50;;;;;;5044498;28;20205;-86
2022/06/12 03:07:30;;;;;;;16.83;5.20;;;11.90;87.40;;;;;;5042331;28;20180;-86
2022/06/12 03:09:59;;;;;;;17.43;5.53;;;12.20;87.80;;;;;;5043909;28;20227;-86
2022/06/12 03:12:27;;;;;;;15.87;5.00;;;12.20;88.20;;;;;;5045387;28;20168;-86
2022/06/12 03:14:54;;;;;;;14.80;4.63;;;12.20;88.00;;;;;;5045203;28;20251;-86
2022/06/12 03:17:20;;;;;;;15.17;4.53;;;12.20;87.90;;;;;;5045985;28;20256;-86
2022/06/12 03:19:50;;;;;;;15.47;4.87;;;12.20;87.80;;;;;;5045078;28;20213;-86
2022/06/12 03:22:16;;;;;;;10.67;4.30;;;12.30;87.40;;;;;;5046011;28;20173;-85
2022/06/12 03:25:03;;;;;;;13.50;4.80;;;12.30;86.80;;;;;;5046769;28;20228;-85
2022/06/12 03:27:35;;;;;;;9.40;3.87;;;12.40;86.40;;;;;;5046482;28;20555;-86
2022/06/12 03:30:26;;;;;;;10.27;3.90;;;12.40;86.20;;;;;;5045450;28;20646;-86
2022/06/12 03:33:44;;;;;;;9.90;3.87;;;12.30;86.10;;;;;;5044962;28;20244;-86
2022/06/12 03:36:21;;;;;;;10.80;3.23;;;12.20;85.90;;;;;;4985057;28;20267;-86
2022/06/12 03:38:53;;;;;;;7.77;3.10;;;12.20;85.80;;;;;;4985650;28;20163;-85
2022/06/12 03:41:35;;;;;;;8.27;3.50;;;12.20;85.60;;;;;;5026228;28;20207;-86
2022/06/12 03:44:26;;;;;;;8.87;3.93;;;12.20;85.30;;;;;;5045800;28;20168;-86
2022/06/12 03:47:04;;;;;;;8.33;3.57;;;12.30;84.80;;;;;;5043059;28;20200;-87
2022/06/12 03:49:38;;;;;;;7.33;3.33;;;12.50;84.40;;;;;;5044681;28;20215;-87
2022/06/12 03:52:26;;;;;;;12.63;4.47;;;12.70;84.10;;;;;;5044256;28;20165;-87
2022/06/12 03:55:06;;;;;;;12.83;4.80;;;12.80;83.80;;;;;;5043824;28;20627;-86
2022/06/12 03:57:56;;;;;;;15.33;5.20;;;12.80;84.20;;;;;;5045168;28;20172;-86
2022/06/12 04:00:35;;;;;;;13.50;4.73;;;12.80;85.20;;;;;;5044354;28;20209;-87
2022/06/12 04:03:19;;;;;;;16.47;4.70;;;12.80;85.80;;;;;;5046661;28;20169;-86
2022/06/12 04:05:58;;;;;;;19.17;5.57;;;13.00;85.30;;;;;;5045182;28;20227;-85
2022/06/12 04:08:29;;;;;;;18.00;4.87;;;13.20;85.50;;;;;;5045977;28;20169;-86
2022/06/12 04:10:56;;;;;;;12.60;4.50;;;13.30;85.30;;;;;;5044709;28;20634;-86
2022/06/12 04:13:23;;;;;;;18.43;5.40;;;13.50;84.70;;;;;;5044860;28;20208;-86
2022/06/12 04:16:13;;;;;;;12.73;4.27;;;13.50;84.50;;;;;;5044640;28;20188;-87
2022/06/12 04:18:38;;;;;;;13.63;4.60;;;13.60;84.70;;;;;;5045627;28;20260;-86
2022/06/12 04:21:20;;;;;;;16.03;4.60;;;13.60;84.10;;;;;;5045397;28;20665;-86
2022/06/12 04:23:58;;;;;;;17.57;6.00;;;13.20;85.30;;;;;;5044035;28;20260;-85
2022/06/12 04:26:47;;;;;;;19.27;5.77;;;13.00;86.40;;;;;;5044647;28;20205;-87
2022/06/12 04:29:12;;;;;;;18.53;5.73;;;13.10;87.20;;;;;;5043696;28;20200;-86
2022/06/12 04:31:41;;;;;;;19.30;5.83;;;13.10;87.10;;;;;;5044971;28;20180;-86
2022/06/12 04:34:07;;;;;;;13.67;5.63;;;13.20;87.10;;;;;;5044802;28;20191;-85
2022/06/12 04:36:32;;;;;;;22.80;6.40;;;13.10;87.20;;;;;;5043093;28;20248;-86
2022/06/12 04:38:58;;;;;;;21.07;5.70;;;13.00;87.60;;;;;;5042188;28;20744;-86
2022/06/12 04:41:27;;;;;;;21.30;6.73;;;13.10;87.80;;;;;;5042432;28;20188;-87
2022/06/12 04:43:53;;;;;;;19.27;6.03;;;13.10;88.00;;;;;;5043207;28;20185;-86
2022/06/12 04:46:20;;;;;;;17.00;5.67;;;13.10;88.30;;;;;;5041910;28;20204;-87
2022/06/12 04:48:49;;;;;;;18.23;4.77;;;13.10;88.50;;;;;;5041319;28;20628;-86
2022/06/12 04:51:15;;;;;;;20.43;6.13;;;13.20;88.70;;;;;;5043369;28;20730;-87
2022/06/12 04:53:43;;;;;;;15.10;5.00;;;13.20;88.70;;;;;;5041407;28;20173;-87
2022/06/12 04:56:09;;;;;;;17.53;5.83;;;13.20;88.70;;;;;;5042543;28;20184;-86
2022/06/12 04:58:36;;;;;;;14.80;4.37;;;13.20;88.60;;;;;;5042571;28;20176;-87
2022/06/12 05:01:02;;;;;;;21.00;4.93;;;13.30;88.50;;;;;;5041721;28;20176;-87
2022/06/12 05:03:27;;;;;;;16.97;5.20;;;13.40;88.50;;;;;;5039656;28;20234;-86
2022/06/12 05:05:54;;;;;;;20.80;5.10;;;13.50;88.60;;;;;;5041606;28;20577;-87
2022/06/12 05:08:20;;;;;;;22.77;5.57;;;13.50;88.50;;;;;;5043048;28;20183;-87
2022/06/12 05:10:46;;;;;;;18.77;5.17;;;13.60;88.40;;;;;;5041175;28;20683;-87
2022/06/12 05:13:12;;;;;;;16.30;4.37;;;13.70;88.20;;;;;;5040101;28;20203;-87
2022/06/12 05:15:38;;;;;;;16.23;5.30;;;13.80;88.30;;;;;;5040391;28;20252;-86
2022/06/12 05:18:06;;;;;;;14.87;4.50;;;13.90;88.20;;;;;;5040515;28;20189;-85
2022/06/12 05:20:34;;;;;;;24.33;5.37;;;14.00;88.20;;;;;;5042696;28;20610;-86
2022/06/12 05:23:00;;;;;;;22.60;5.47;;;14.20;88.20;;;;;;5041527;28;20199;-86
2022/06/12 05:25:25;;;;;;;20.10;4.70;;;14.20;88.00;;;;;;5040239;28;20201;-86
2022/06/12 05:27:52;;;;;;;21.33;5.60;;;14.30;87.60;;;;;;5040067;28;20181;-86
2022/06/12 05:30:21;;;;;;;17.33;4.80;;;14.50;87.10;;;;;;5042128;28;20192;-86
2022/06/12 05:32:50;;;;;;;19.77;5.33;;;14.50;86.30;;;;;;5042250;28;20173;-86
2022/06/12 05:35:18;;;;;;;17.77;4.97;;;14.70;85.90;;;;;;5043137;28;20176;-86
2022/06/12 05:37:44;;;;;;;20.97;4.53;;;14.80;85.40;;;;;;5039791;28;20181;-86
2022/06/12 05:40:14;;;;;;;17.37;4.70;;;14.90;85.30;;;;;;5035087;28;20303;-87
2022/06/12 05:42:41;;;;;;;19.17;4.50;;;15.00;84.30;;;;;;5040194;28;20172;-86
2022/06/12 05:45:12;;;;;;;19.10;4.63;;;15.10;84.20;;;;;;5040258;28;20204;-87
2022/06/12 05:47:45;;;;;;;21.30;4.67;;;15.20;83.70;;;;;;5040373;28;20149;-86
2022/06/12 05:50:11;;;;;;;19.10;4.60;;;15.30;83.00;;;;;;5039566;28;20199;-86
2022/06/12 05:52:37;;;;;;;19.20;5.03;;;15.30;82.40;;;;;;5040319;28;20180;-87
2022/06/12 05:55:03;;;;;;;18.40;4.27;;;15.50;82.50;;;;;;5040873;28;20647;-86
2022/06/12 05:57:29;;;;;;;20.77;4.27;;;15.60;82.30;;;;;;5038600;28;20188;-86
2022/06/12 05:59:54;;;;;;;17.33;3.60;;;15.70;82.10;;;;;;5038972;28;20242;-86
2022/06/12 06:02:20;;;;;;;15.70;4.57;;;15.80;80.20;;;;;;5038551;28;20211;-86
2022/06/12 06:04:45;;;;;;;18.03;4.80;;;15.80;81.10;;;;;;5038630;28;20191;-86
2022/06/12 06:07:11;;;;;;;15.75;4.00;;;15.90;80.00;;;;;;5040064;28;20226;-86
2022/06/12 06:09:37;;;;;;;13.55;3.75;;;16.00;79.10;;;;;;5040724;28;20203;-86
2022/06/12 06:12:03;;;;;;;21.38;3.92;;;16.10;79.90;;;;;;5041312;28;20181;-86
2022/06/12 06:14:28;;;;;;;16.55;4.10;;;16.20;79.40;;;;;;5039737;28;20187;-86
2022/06/12 06:16:54;;;;;;;22.98;5.65;;;16.20;79.00;;;;;;5040766;28;20184;-86
2022/06/12 06:19:20;;;;;;;19.77;4.70;;;16.30;78.60;;;;;;5039808;28;20660;-86
2022/06/12 06:21:45;;;;;;;17.30;4.00;;;16.40;78.20;;;;;;5039595;28;20171;-86
2022/06/12 06:24:11;;;;;;;20.13;4.25;;;16.40;77.00;;;;;;5039599;28;20177;-86
2022/06/12 06:26:38;;;;;;;14.57;4.10;;;16.60;76.30;;;;;;5040853;28;20189;-85
2022/06/12 06:29:04;;;;;;;14.95;3.50;;;16.70;77.40;;;;;;5039453;28;20184;-86
2022/06/12 06:31:30;;;;;;;18.23;4.25;;;16.70;76.50;;;;;;5039349;28;20569;-86
2022/06/12 06:33:55;;;;;;;20.70;3.92;;;16.80;76.00;;;;;;5039444;28;20173;-86
2022/06/12 06:36:22;;;;;;;19.38;3.90;;;16.90;76.30;;;;;;5039871;28;20173;-86
2022/06/12 06:38:51;;;;;;;22.35;4.68;;;16.90;75.20;;;;;;5039156;28;20204;-86
2022/06/12 06:41:16;;;;;;;15.77;3.15;;;17.00;75.00;;;;;;5039877;28;20212;-86
2022/06/12 06:46:26;;;;;;;19.45;3.90;;;17.20;75.20;;;;;;5040517;28;20192;-86
2022/06/12 06:48:52;;;;;;;22.15;3.70;;;17.30;74.70;;;;;;5040761;28;20181;-86
2022/06/12 06:51:18;;;;;;;16.98;3.75;;;17.30;72.10;;;;;;5040489;28;20191;-87
2022/06/12 06:53:44;;;;;;;15.90;3.28;;;17.40;71.90;;;;;;5039799;28;20172;-86
2022/06/12 06:56:10;;;;;;;17.17;3.85;;;17.50;70.30;;;;;;5039201;28;20180;-86
2022/06/12 06:58:35;;;;;;;14.27;3.20;;;17.60;71.40;;;;;;5040143;28;20215;-87
2022/06/12 07:01:02;;;;;;;15.38;2.92;;;17.70;70.60;;;;;;5038013;28;20695;-86
2022/06/12 07:03:29;;;;;;;14.50;3.60;;;17.80;69.80;;;;;;5038432;28;20403;-86
2022/06/12 07:05:55;;;;;;;13.25;2.88;;;17.80;68.90;;;;;;5039854;28;20282;-86
2022/06/12 07:08:23;;;;;;;20.05;3.78;;;17.90;71.10;;;;;;5037628;28;20173;-87
2022/06/12 07:10:50;;;;;;;14.93;3.83;;;18.00;70.80;;;;;;5039462;28;20200;-87
2022/06/12 07:13:16;;;;;;;16.65;3.88;;;18.00;69.90;;;;;;5040177;28;20199;-86
2022/06/12 07:15:42;;;;;;;16.30;3.80;;;18.10;68.50;;;;;;5039163;28;20620;-86
2022/06/12 07:18:10;;;;;;;12.02;2.95;;;18.20;70.00;;;;;;5038650;28;20659;-86
2022/06/12 07:20:40;;;;;;;20.80;4.55;;;18.20;67.60;;;;;;5039710;28;20231;-86
2022/06/12 07:23:07;;;;;;;11.55;2.97;;;18.20;66.30;;;;;;5041887;28;20176;-86
2022/06/12 07:25:39;;;;;;;13.02;3.50;;;18.30;67.90;;;;;;5041874;28;20207;-86
2022/06/12 07:28:04;;;;;;;19.83;3.40;;;18.30;66.90;;;;;;5041585;28;20177;-86
2022/06/12 07:30:30;;;;;;;16.73;4.70;;;18.50;67.40;;;;;;5041882;28;20196;-86
2022/06/12 07:32:55;;;;;;;15.77;3.80;;;18.50;68.30;;;;;;5040054;28;20237;-86
2022/06/12 07:35:21;;;;;;;13.27;3.47;;;18.60;68.00;;;;;;5040026;28;20176;-87
2022/06/12 07:37:48;;;;;;;12.30;3.00;;;18.60;65.30;;;;;;5036476;28;20184;-87
2022/06/12 07:40:27;;;;;;;13.88;3.83;;;18.70;65.20;;;;;;5040822;28;20205;-87
2022/06/12 07:42:53;;;;;;;10.77;2.63;;;18.80;65.30;;;;;;5039350;28;20195;-86
2022/06/12 07:45:18;;;;;;;12.10;3.00;;;18.90;66.00;;;;;;5039158;28;20580;-87
2022/06/12 07:47:44;;;;;;;8.25;2.63;;;19.10;65.80;;;;;;5038911;28;20207;-87
2022/06/12 07:50:11;;;;;;;14.45;2.95;;;19.20;64.40;;;;;;5036827;28;20196;-87
2022/06/12 07:52:39;;;;;;;12.75;3.20;;;19.30;63.80;;;;;;5039411;28;20200;-88
2022/06/12 07:55:06;;;;;;;8.45;2.28;;;19.30;64.60;;;;;;5038906;28;20169;-88
2022/06/12 07:57:32;;;;;;;12.85;2.83;;;19.30;62.60;;;;;;5040415;28;20643;-87
2022/06/12 07:59:58;;;;;;;11.27;2.58;;;19.50;62.50;;;;;;5037533;28;20203;-87
2022/06/12 08:02:23;;;;;;;10.07;2.42;;;19.60;62.80;;;;;;5037580;28;20544;-86
2022/06/12 08:04:49;;;;;;;11.23;2.67;;;19.70;62.70;;;;;;5036037;28;20177;-86
2022/06/12 08:07:14;;;;;;;15.55;3.35;;;19.70;62.10;;;;;;5035633;28;20236;-87
2022/06/12 08:09:40;;;;;;;11.05;2.55;;;19.70;62.60;;;;;;5036307;28;20193;-87
2022/06/12 08:12:06;;;;;;;10.02;2.50;;;19.80;61.70;;;;;;5037327;28;20169;-86
2022/06/12 08:14:31;;;;;;;9.23;2.75;;;20.00;62.60;;;;;;5037098;28;20647;-87
2022/06/12 08:16:57;;;;;;;9.10;2.95;;;20.10;60.60;;;;;;5036756;28;20184;-87
2022/06/12 08:22:08;;;;;;;7.05;2.13;;;20.20;59.60;;;;;;5037273;28;20307;-87
2022/06/12 08:24:34;;;;;;;16.15;4.13;;;20.20;58.20;;;;;;5036481;28;20173;-87
2022/06/12 08:27:00;;;;;;;10.32;2.42;;;20.40;59.20;;;;;;5036552;28;20235;-87
2022/06/12 08:29:26;;;;;;;15.70;3.13;;;20.30;59.00;;;;;;5034746;28;20689;-87
2022/06/12 08:32:11;;;;;;;12.63;2.33;;;20.20;61.50;;;;;;5035772;28;20530;-87
2022/06/12 08:34:41;;;;;;;11.57;2.63;;;20.30;59.50;;;;;;5034825;28;20165;-87
2022/06/12 08:37:12;;;;;;;12.30;2.67;;;20.30;58.60;;;;;;5035269;28;20161;-87
2022/06/12 08:39:37;;;;;;;10.27;2.50;;;20.40;59.90;;;;;;5034790;28;20197;-86
2022/06/12 08:42:27;;;;;;;12.05;2.95;;;20.30;58.60;;;;;;5035102;28;20264;-87
2022/06/12 08:45:07;;;;;;;9.57;2.55;;;20.60;59.90;;;;;;5035170;28;20172;-87
2022/06/12 08:47:54;;;;;;;11.73;2.38;;;20.80;59.60;;;;;;5035858;28;20615;-88
2022/06/12 08:50:26;;;;;;;15.25;3.28;;;20.80;59.80;;;;;;5035162;28;20208;-87
2022/06/12 08:53:07;;;;;;;11.48;2.92;;;21.00;60.60;;;;;;5034838;28;20177;-87
2022/06/12 08:55:41;;;;;;;18.45;3.28;;;20.80;60.50;;;;;;5035476;28;20161;-87
2022/06/12 08:58:23;;;;;;;12.98;2.55;;;21.00;60.10;;;;;;5035294;28;20211;-87
2022/06/12 09:00:48;;;;;;;10.98;3.00;;;20.80;59.40;;;;;;5034543;28;20237;-86
2022/06/12 09:03:20;;;;;;;11.95;3.10;;;20.50;60.10;;;;;;5036027;28;20173;-86
2022/06/12 09:06:14;;;;;;;11.95;3.33;;;20.90;60.40;;;;;;5034575;28;20191;-87
2022/06/12 09:08:49;;;;;;;10.15;3.38;;;21.20;58.30;;;;;;5036072;28;20149;-88
2022/06/12 09:11:30;;;;;;;8.05;2.55;;;20.80;57.80;;;;;;5034638;28;20160;-87
2022/06/12 09:13:58;;;;;;;10.15;2.67;;;21.00;58.30;;;;;;5034781;28;20223;-87
2022/06/12 09:16:33;;;;;;;12.57;2.63;;;21.70;57.70;;;;;;5034647;28;20231;-87
2022/06/12 09:19:17;;;;;;;12.75;2.97;;;21.50;58.00;;;;;;5035064;28;20886;-88
2022/06/12 09:22:09;;;;;;;11.20;2.75;;;21.50;58.80;;;;;;5034136;28;20171;-88
2022/06/12 09:24:53;;;;;;;11.85;3.38;;;21.50;55.90;;;;;;5023046;28;20180;-88
2022/06/12 09:27:29;;;;;;;7.75;2.53;;;21.60;56.50;;;;;;5032569;28;20173;-88
2022/06/12 09:30:03;;;;;;;10.52;2.38;;;21.80;58.40;;;;;;5033642;28;20196;-88
2022/06/12 09:33:06;;;;;;;10.85;2.72;;;22.20;56.70;;;;;;5032586;28;20219;-88
2022/06/12 09:36:04;;;;;;;12.32;2.85;;;21.30;57.00;;;;;;5032460;28;20168;-86
2022/06/12 09:39:00;;;;;;;9.85;2.47;;;21.20;56.50;;;;;;5033770;28;20200;-87
2022/06/12 09:41:26;;;;;;;11.73;2.67;;;21.30;57.40;;;;;;5034419;28;20177;-87
2022/06/12 09:44:15;;;;;;;8.93;2.60;;;21.60;57.10;;;;;;5033495;28;20180;-87
2022/06/12 09:47:05;;;;;;;10.95;3.17;;;21.90;56.30;;;;;;5035016;28;20540;-87
2022/06/12 09:49:44;;;;;;;11.02;2.20;;;22.20;56.60;;;;;;5034056;28;20189;-86
2022/06/12 09:52:45;;;;;;;14.20;2.38;;;22.40;56.30;;;;;;5034538;28;20153;-87
2022/06/12 09:55:36;;;;;;;12.30;2.92;;;22.80;56.60;;;;;;5034405;28;20180;-87
2022/06/12 09:58:11;;;;;;;13.00;3.10;;;22.30;54.80;;;;;;5034155;28;20655;-87
2022/06/12 10:00:51;;;;;;;12.75;2.97;;;22.10;56.70;;;;;;5033925;28;20246;-87
2022/06/12 10:03:25;;;;;;;10.35;2.10;;;22.30;56.00;;;;;;5033895;28;20160;-87
2022/06/12 10:06:14;;;;;;;11.45;3.00;;;22.40;53.90;;;;;;5035322;28;20191;-88
2022/06/12 10:08:51;;;;;;;13.98;2.70;;;22.40;54.50;;;;;;5034304;28;20172;-87
2022/06/12 10:11:22;;;;;;;6.95;2.75;;;22.10;53.20;;;;;;5034704;28;20164;-87
2022/06/12 10:14:09;;;;;;;10.77;2.53;;;21.90;54.30;;;;;;5034036;28;20164;-87
2022/06/12 10:16:48;;;;;;;8.73;2.40;;;22.00;54.20;;;;;;5034455;28;20184;-87
2022/06/12 10:19:26;;;;;;;14.52;2.88;;;22.30;54.50;;;;;;5034053;28;20204;-86
2022/06/12 10:21:55;;;;;;;10.23;2.45;;;22.00;55.00;;;;;;5032145;28;20187;-87
2022/06/12 10:24:21;;;;;;;7.53;2.40;;;22.20;54.40;;;;;;5033474;28;20180;-87
2022/06/12 10:27:12;;;;;;;10.02;2.28;;;22.90;56.10;;;;;;5033801;28;20193;-87
2022/06/12 10:29:50;;;;;;;11.50;2.90;;;22.70;57.80;;;;;;5032827;28;20193;-87
2022/06/12 10:32:20;;;;;;;13.10;2.67;;;22.80;55.50;;;;;;5034531;28;20168;-87
2022/06/12 10:34:46;;;;;;;11.38;3.25;;;22.80;56.70;;;;;;5033813;28;20177;-86
2022/06/12 10:37:24;;;;;;;16.50;3.58;;;22.70;56.90;;;;;;5033512;28;20230;-86
2022/06/12 10:40:14;;;;;;;11.32;2.50;;;22.60;56.70;;;;;;5034109;28;20232;-87
2022/06/12 10:43:03;;;;;;;11.57;2.90;;;21.90;56.30;;;;;;5033496;28;20177;-87
2022/06/12 10:45:33;;;;;;;8.25;2.30;;;21.60;57.20;;;;;;5033092;28;20219;-86
2022/06/12 10:48:02;;;;;;;13.15;3.05;;;21.90;61.20;;;;;;5033815;28;20188;-87
2022/06/12 10:50:47;;;;;;;8.20;2.42;;;22.30;57.20;;;;;;5033936;28;20250;-86
2022/06/12 10:53:18;;;;;;;13.50;2.75;;;22.40;55.90;;;;;;5033463;28;20646;-87
2022/06/12 10:55:58;;;;;;;12.02;2.65;;;22.10;55.90;;;;;;5037050;28;20184;-87
2022/06/12 10:58:33;;;;;;;10.95;2.60;;;22.20;54.60;;;;;;5037400;28;20174;-86
2022/06/12 11:01:09;;;;;;;9.25;2.25;;;22.40;56.30;;;;;;5037087;28;20679;-87
2022/06/12 11:03:51;;;;;;;11.82;2.92;;;22.10;54.90;;;;;;5038221;28;20165;-86
2022/06/12 11:06:28;;;;;;;12.70;2.58;;;22.00;57.00;;;;;;5037096;28;20200;-86
2022/06/12 11:09:16;;;;;;;9.13;2.47;;;21.90;56.50;;;;;;5036600;28;20165;-87
2022/06/12 11:11:57;;;;;;;15.57;2.70;;;22.50;56.30;;;;;;5036201;28;20190;-85
2022/06/12 11:14:33;;;;;;;10.38;2.65;;;23.00;54.00;;;;;;5035703;28;20219;-86
2022/06/12 11:17:22;;;;;;;9.98;2.50;;;23.30;53.60;;;;;;5035849;28;20164;-86
2022/06/12 11:20:05;;;;;;;12.65;3.10;;;23.60;55.20;;;;;;5035563;28;20216;-86
2022/06/12 11:23:03;;;;;;;12.35;3.20;;;24.10;52.00;;;;;;5036281;28;20157;-86
2022/06/12 11:25:49;;;;;;;10.68;2.50;;;23.50;55.50;;;;;;5036199;28;20195;-87
2022/06/12 11:28:50;;;;;;;13.93;2.80;;;23.10;53.70;;;;;;5034858;28;20215;-86
2022/06/12 11:31:35;;;;;;;12.40;3.13;;;23.70;52.50;;;;;;5034841;28;20634;-86
2022/06/12 11:34:06;;;;;;;11.75;3.00;;;22.80;54.80;;;;;;5034597;28;20260;-86
2022/06/12 11:36:42;;;;;;;9.98;2.03;;;22.70;54.90;;;;;;5034755;28;20203;-86
2022/06/12 11:39:20;;;;;;;10.20;3.33;;;22.20;55.40;;;;;;5034566;28;20285;-87
2022/06/12 11:42:16;;;;;;;9.32;2.88;;;22.30;54.70;;;;;;5034615;28;20263;-86
2022/06/12 11:45:06;;;;;;;13.05;3.00;;;21.60;58.30;;;;;;5036066;28;20233;-86
2022/06/12 11:47:51;;;;;;;14.10;2.88;;;21.20;58.30;;;;;;5034635;28;20264;-86
2022/06/12 11:50:42;;;;;;;7.32;2.28;;;21.20;59.40;;;;;;5034578;28;20184;-86
2022/06/12 11:53:14;;;;;;;10.90;3.15;;;21.10;60.50;;;;;;5034551;28;20169;-86
2022/06/12 11:55:46;;;;;;;12.68;3.25;;;21.40;60.10;;;;;;5034826;28;20507;-87
2022/06/12 11:58:21;;;;;;;14.15;3.00;;;21.40;59.80;;;;;;5036007;28;20165;-88
2022/06/12 12:00:59;;;;;;;11.63;3.20;;;21.40;58.40;;;;;;5035820;28;20196;-87
2022/06/12 12:03:58;;;;;;;11.63;2.85;;;21.30;61.00;;;;;;5034468;28;20181;-86
2022/06/12 12:06:53;;;;;;;8.75;2.88;;;22.00;60.10;;;;;;5033436;28;20193;-87
2022/06/12 12:09:40;;;;;;;11.95;2.83;;;22.50;54.80;;;;;;5035581;28;20223;-87
2022/06/12 12:12:14;;;;;;;9.85;2.47;;;22.00;55.00;;;;;;5034197;28;20201;-87
2022/06/12 12:14:44;;;;;;;13.35;3.10;;;22.40;54.70;;;;;;5035652;28;20547;-88
2022/06/12 12:17:21;;;;;;;14.07;3.30;;;23.00;55.30;;;;;;5035070;28;20627;-87
2022/06/12 12:19:55;;;;;;;12.38;3.22;;;23.40;53.20;;;;;;5033996;28;20228;-88
2022/06/12 12:22:46;;;;;;;6.57;2.55;;;23.30;54.40;;;;;;5033964;28;20244;-88
2022/06/12 12:25:23;;;;;;;11.73;2.97;;;23.60;52.20;;;;;;5033946;28;20172;-87
2022/06/12 12:27:55;;;;;;;12.50;2.85;;;22.80;51.70;;;;;;5035194;28;20632;-88
2022/06/12 12:30:24;;;;;;;7.88;2.58;;;22.40;54.00;;;;;;5033990;28;20203;-86
2022/06/12 12:32:54;;;;;;;15.05;2.88;;;21.70;58.10;;;;;;5033881;28;20177;-87
2022/06/12 12:41:13;;;;;;;8.38;2.90;;;22.10;62.20;;;;;;5035210;28;20351;-86
2022/06/12 12:43:55;;;;;;;12.68;3.63;;;21.50;63.70;;;;;;5033806;28;20183;-88
2022/06/12 12:46:24;;;;;;;10.23;3.60;;;21.20;65.90;;;;;;5035171;28;20211;-87
2022/06/12 12:48:54;;;;;;;9.80;3.30;;;21.10;65.70;;;;;;5033362;28;20674;-88
2022/06/12 12:51:32;;;;;;;11.93;3.22;;;21.20;66.40;;;;;;5035210;28;20161;-86
2022/06/12 12:54:18;;;;;;;14.15;3.88;;;21.60;67.00;;;;;;5036290;28;20619;-87
2022/06/12 12:56:51;;;;;;;13.15;3.15;;;21.80;67.20;;;;;;5035233;28;20200;-87
2022/06/12 12:59:18;;;;;;;13.13;2.88;;;22.00;67.00;;;;;;5036185;28;20249;-88
2022/06/12 13:01:47;;;;;;;13.13;3.05;;;22.40;65.60;;;;;;5035782;28;20184;-87
2022/06/12 13:04:19;;;;;;;11.30;3.67;;;23.00;62.30;;;;;;5036823;28;20176;-88
2022/06/12 13:07:05;;;;;;;8.43;2.88;;;22.80;61.40;;;;;;5036128;28;20207;-87
2022/06/12 13:09:58;;;;;;;10.65;2.80;;;23.00;60.50;;;;;;5034637;28;20188;-88
2022/06/12 13:12:44;;;;;;;6.97;2.90;;;23.80;57.90;;;;;;5034854;28;20168;-88
2022/06/12 13:15:27;;;;;;;11.05;2.78;;;24.20;56.30;;;;;;5035625;28;20173;-86
2022/06/12 13:18:12;;;;;;;11.45;3.20;;;24.10;55.50;;;;;;5033947;28;20168;-88
2022/06/12 13:21:03;;;;;;;10.23;3.10;;;24.50;53.90;;;;;;5033551;28;20223;-88
2022/06/12 13:24:00;;;;;;;11.50;2.75;;;24.80;53.80;;;;;;5033400;28;20207;-88
2022/06/12 13:26:30;;;;;;;7.10;2.65;;;23.90;55.30;;;;;;5032667;28;20280;-88
2022/06/12 13:28:59;;;;;;;11.00;3.00;;;23.80;55.80;;;;;;5034097;28;20153;-86
2022/06/12 13:31:28;;;;;;;12.55;3.17;;;24.00;54.80;;;;;;5033196;28;20263;-87